METAR Data

Data at: 0022 UTC 14 May 2021

KMLI 132352Z 15003KT 10SM BKN100 18/02 A3029 RMK AO2 SLP260 T01780022 10211 20172 56012
KMLI 132252Z 00000KT 10SM FEW100 19/M04 A3030 RMK AO2 SLP263 T01891039
KMLI 132152Z 19007KT 10SM CLR 20/M02 A3031 RMK AO2 SLP266 T02001017
KMLI 132052Z 00000KT 10SM FEW100 20/M02 A3033 RMK AO2 SLP273 T02001017 58019
KMLI 131952Z 06005KT 10SM OVC090 21/M01 A3035 RMK AO2 SLP279 T02061011
KMLI 131852Z VRB04KT 10SM SCT095 19/M02 A3037 RMK AO2 SLP285 T01941022